O'Higgins, Argentina
Current Conditions -  °F | °C
As of 10:14 AM on Friday 31 Oct 2014 (Local Time) from SAAR Reporting Station
Broken Clouds Broken Clouds  
Wind Chill: 16°   Ceiling: 1200
Heat Index: 16°   Visibility: 6mi
Dew Point: 16°   Wind: 14mph
Humidity: 100%   Direction: 140°SE
Pressure: 29.88"   Gusts: NA
Location:  34.58°S, 60.7°W
Report Text: SAAR 311314Z 14012KT 9999 FEW004 SCT007 BKN012 16/16 Q1012 RETS
Loading
Personal Weather Stations






























Interactive Weather Map
Tropical Storm Tracking
New forecast layout! Learn more

10-Day Weather Forecast

Advertisements
Track Severe Weather on mobile